sensor_id;sensor_type;location;lat;lon;timestamp;pressure;altitude;pressure_sealevel;temperature;humidity
5877;BME280;2964;42.144;24.730;2022-09-02T00:00:38;147266.50;;;22.99;100.00
5877;BME280;2964;42.144;24.730;2022-09-02T00:03:06;147324.88;;;23.22;100.00
5877;BME280;2964;42.144;24.730;2022-09-02T00:05:33;147343.88;;;23.30;100.00
5877;BME280;2964;42.144;24.730;2022-09-02T00:08:00;147271.56;;;23.01;100.00
5877;BME280;2964;42.144;24.730;2022-09-02T00:10:26;147309.63;;;23.16;100.00
5877;BME280;2964;42.144;24.730;2022-09-02T00:12:55;147326.13;;;23.23;100.00
5877;BME280;2964;42.144;24.730;2022-09-02T00:15:22;147340.06;;;23.28;100.00
5877;BME280;2964;42.144;24.730;2022-09-02T00:17:48;147354.00;;;23.34;100.00
5877;BME280;2964;42.144;24.730;2022-09-02T00:20:15;147319.78;;;23.20;100.00
5877;BME280;2964;42.144;24.730;2022-09-02T00:22:43;147313.44;;;23.18;100.00
5877;BME280;2964;42.144;24.730;2022-09-02T00:25:10;147304.56;;;23.14;100.00
5877;BME280;2964;42.144;24.730;2022-09-02T00:27:37;147315.97;;;23.19;100.00
5877;BME280;2964;42.144;24.730;2022-09-02T00:30:07;147350.19;;;23.32;100.00
5877;BME280;2964;42.144;24.730;2022-09-02T00:32:34;147286.78;;;23.07;100.00
5877;BME280;2964;42.144;24.730;2022-09-02T00:35:01;147314.69;;;23.18;100.00
5877;BME280;2964;42.144;24.730;2022-09-02T00:37:28;147294.41;;;23.10;100.00
5877;BME280;2964;42.144;24.730;2022-09-02T00:39:54;147323.56;;;23.22;100.00
5877;BME280;2964;42.144;24.730;2022-09-02T00:42:23;147294.41;;;23.10;100.00
5877;BME280;2964;42.144;24.730;2022-09-02T00:44:50;147346.38;;;23.31;100.00
5877;BME280;2964;42.144;24.730;2022-09-02T00:47:19;147347.69;;;23.31;100.00
5877;BME280;2964;42.144;24.730;2022-09-02T00:49:49;147304.56;;;23.14;100.00
5877;BME280;2964;42.144;24.730;2022-09-02T00:52:20;147317.25;;;23.19;100.00
5877;BME280;2964;42.144;24.730;2022-09-02T00:54:52;147209.41;;;22.75;100.00
5877;BME280;2964;42.144;24.730;2022-09-02T00:57:21;147290.59;;;23.08;100.00
5877;BME280;2964;42.144;24.730;2022-09-02T00:59:53;147332.44;;;23.25;100.00
5877;BME280;2964;42.144;24.730;2022-09-02T01:02:26;147313.44;;;23.18;100.00
5877;BME280;2964;42.144;24.730;2022-09-02T01:04:56;147357.81;;;23.36;100.00
5877;BME280;2964;42.144;24.730;2022-09-02T01:07:23;147355.25;;;23.35;100.00
5877;BME280;2964;42.144;24.730;2022-09-02T01:09:52;147351.44;;;23.33;100.00
5877;BME280;2964;42.144;24.730;2022-09-02T01:12:19;147362.88;;;23.38;100.00
5877;BME280;2964;42.144;24.730;2022-09-02T01:14:46;147332.44;;;23.25;100.00
5877;BME280;2964;42.144;24.730;2022-09-02T01:17:13;147281.72;;;23.05;100.00
5877;BME280;2964;42.144;24.730;2022-09-02T01:19:45;147248.75;;;22.91;100.00
5877;BME280;2964;42.144;24.730;2022-09-02T01:22:17;147290.59;;;23.08;100.00
5877;BME280;2964;42.144;24.730;2022-09-02T01:24:44;147307.09;;;23.15;100.00
5877;BME280;2964;42.144;24.730;2022-09-02T01:27:13;147294.41;;;23.10;100.00
5877;BME280;2964;42.144;24.730;2022-09-02T01:29:40;147346.38;;;23.31;100.00
5877;BME280;2964;42.144;24.730;2022-09-02T01:32:07;147307.09;;;23.15;100.00
5877;BME280;2964;42.144;24.730;2022-09-02T01:34:34;147257.59;;;22.95;100.00
5877;BME280;2964;42.144;24.730;2022-09-02T01:37:00;147303.31;;;23.13;100.00
5877;BME280;2964;42.144;24.730;2022-09-02T01:39:28;147288.09;;;23.07;100.00
5877;BME280;2964;42.144;24.730;2022-09-02T01:41:55;147312.16;;;23.17;100.00
5877;BME280;2964;42.144;24.730;2022-09-02T01:44:22;147279.22;;;23.04;100.00
5877;BME280;2964;42.144;24.730;2022-09-02T01:46:52;147116.94;;;22.38;100.00
5877;BME280;2964;42.144;24.730;2022-09-02T01:49:19;147208.16;;;22.75;100.00
5877;BME280;2964;42.144;24.730;2022-09-02T01:51:46;147234.78;;;22.86;100.00
5877;BME280;2964;42.144;24.730;2022-09-02T01:54:13;147233.53;;;22.85;100.00
5877;BME280;2964;42.144;24.730;2022-09-02T01:56:41;147257.59;;;22.95;100.00
5877;BME280;2964;42.144;24.730;2022-09-02T01:59:08;147304.56;;;23.14;100.00
5877;BME280;2964;42.144;24.730;2022-09-02T02:01:36;147304.56;;;23.14;100.00
5877;BME280;2964;42.144;24.730;2022-09-02T02:04:03;147250.00;;;22.92;100.00
5877;BME280;2964;42.144;24.730;2022-09-02T02:06:29;147288.09;;;23.07;100.00
5877;BME280;2964;42.144;24.730;2022-09-02T02:08:56;147255.06;;;22.94;100.00
5877;BME280;2964;42.144;24.730;2022-09-02T02:11:24;147270.31;;;23.00;100.00
5877;BME280;2964;42.144;24.730;2022-09-02T02:13:52;147251.25;;;22.92;100.00
5877;BME280;2964;42.144;24.730;2022-09-02T02:16:19;147175.22;;;22.62;100.00
5877;BME280;2964;42.144;24.730;2022-09-02T02:18:46;147223.38;;;22.81;100.00
5877;BME280;2964;42.144;24.730;2022-09-02T02:21:12;147203.09;;;22.73;100.00
5877;BME280;2964;42.144;24.730;2022-09-02T02:23:39;147223.38;;;22.81;100.00
5877;BME280;2964;42.144;24.730;2022-09-02T02:26:06;147180.28;;;22.64;100.00
5877;BME280;2964;42.144;24.730;2022-09-02T02:28:33;147172.66;;;22.61;100.00
5877;BME280;2964;42.144;24.730;2022-09-02T02:31:01;147201.84;;;22.72;100.00
5877;BME280;2964;42.144;24.730;2022-09-02T02:33:28;147189.16;;;22.67;100.00
5877;BME280;2964;42.144;24.730;2022-09-02T02:35:55;147205.63;;;22.74;100.00
5877;BME280;2964;42.144;24.730;2022-09-02T02:38:23;147211.97;;;22.77;100.00
5877;BME280;2964;42.144;24.730;2022-09-02T02:40:53;147172.66;;;22.61;100.00
5877;BME280;2964;42.144;24.730;2022-09-02T02:43:20;147152.41;;;22.52;100.00
5877;BME280;2964;42.144;24.730;2022-09-02T02:45:47;147158.75;;;22.55;100.00
5877;BME280;2964;42.144;24.730;2022-09-02T02:48:15;147171.41;;;22.60;100.00
5877;BME280;2964;42.144;24.730;2022-09-02T02:50:42;147147.34;;;22.50;100.00
5877;BME280;2964;42.144;24.730;2022-09-02T02:53:09;147156.22;;;22.54;100.00
5877;BME280;2964;42.144;24.730;2022-09-02T02:55:37;147167.59;;;22.59;100.00
5877;BME280;2964;42.144;24.730;2022-09-02T02:58:04;147149.88;;;22.51;100.00
5877;BME280;2964;42.144;24.730;2022-09-02T03:00:32;147153.66;;;22.53;100.00
5877;BME280;2964;42.144;24.730;2022-09-02T03:03:01;147109.31;;;22.35;100.00
5877;BME280;2964;42.144;24.730;2022-09-02T03:05:30;147137.19;;;22.46;100.00
5877;BME280;2964;42.144;24.730;2022-09-02T03:07:58;147152.41;;;22.52;100.00
5877;BME280;2964;42.144;24.730;2022-09-02T03:10:25;147057.31;;;22.14;100.00
5877;BME280;2964;42.144;24.730;2022-09-02T03:12:52;147114.38;;;22.37;100.00
5877;BME280;2964;42.144;24.730;2022-09-02T03:15:20;147138.47;;;22.47;100.00
5877;BME280;2964;42.144;24.730;2022-09-02T03:17:48;147109.31;;;22.35;100.00
5877;BME280;2964;42.144;24.730;2022-09-02T03:20:17;147108.06;;;22.34;100.00
5877;BME280;2964;42.144;24.730;2022-09-02T03:22:46;147114.38;;;22.37;100.00
5877;BME280;2964;42.144;24.730;2022-09-02T03:25:15;147106.78;;;22.34;100.00
5877;BME280;2964;42.144;24.730;2022-09-02T03:27:42;147105.50;;;22.33;100.00
5877;BME280;2964;42.144;24.730;2022-09-02T03:30:12;147113.13;;;22.36;100.00
5877;BME280;2964;42.144;24.730;2022-09-02T03:32:40;147129.59;;;22.43;100.00
5877;BME280;2964;42.144;24.730;2022-09-02T03:35:10;147129.59;;;22.43;100.00
5877;BME280;2964;42.144;24.730;2022-09-02T03:37:37;147097.94;;;22.30;100.00
5877;BME280;2964;42.144;24.730;2022-09-02T03:40:08;147078.88;;;22.23;100.00
5877;BME280;2964;42.144;24.730;2022-09-02T03:42:35;147099.19;;;22.31;100.00
5877;BME280;2964;42.144;24.730;2022-09-02T03:45:03;147063.66;;;22.16;100.00
5877;BME280;2964;42.144;24.730;2022-09-02T03:47:31;147110.59;;;22.35;100.00
5877;BME280;2964;42.144;24.730;2022-09-02T03:49:58;147124.53;;;22.41;100.00
5877;BME280;2964;42.144;24.730;2022-09-02T03:52:25;147143.53;;;22.49;100.00
5877;BME280;2964;42.144;24.730;2022-09-02T03:54:51;147094.13;;;22.29;100.00
5877;BME280;2964;42.144;24.730;2022-09-02T03:57:19;147068.72;;;22.18;100.00
5877;BME280;2964;42.144;24.730;2022-09-02T03:59:50;147120.72;;;22.40;100.00
5877;BME280;2964;42.144;24.730;2022-09-02T04:02:16;147165.09;;;22.58;100.00
5877;BME280;2964;42.144;24.730;2022-09-02T04:04:43;147122.00;;;22.40;100.00
5877;BME280;2964;42.144;24.730;2022-09-02T04:07:10;147133.41;;;22.45;100.00
5877;BME280;2964;42.144;24.730;2022-09-02T04:09:37;147132.13;;;22.44;100.00
5877;BME280;2964;42.144;24.730;2022-09-02T04:12:04;147071.25;;;22.20;100.00
5877;BME280;2964;42.144;24.730;2022-09-02T04:14:32;147127.06;;;22.42;100.00
5877;BME280;2964;42.144;24.730;2022-09-02T04:16:59;147143.53;;;22.49;100.00
5877;BME280;2964;42.144;24.730;2022-09-02T04:19:26;147111.88;;;22.36;100.00
5877;BME280;2964;42.144;24.730;2022-09-02T04:21:53;147124.53;;;22.41;100.00
5877;BME280;2964;42.144;24.730;2022-09-02T04:24:19;147149.88;;;22.51;100.00
5877;BME280;2964;42.144;24.730;2022-09-02T04:26:46;147152.41;;;22.52;100.00
5877;BME280;2964;42.144;24.730;2022-09-02T04:29:13;147153.66;;;22.53;100.00
5877;BME280;2964;42.144;24.730;2022-09-02T04:31:42;147108.06;;;22.34;100.00
5877;BME280;2964;42.144;24.730;2022-09-02T04:34:33;147083.94;;;22.25;100.00
5877;BME280;2964;42.144;24.730;2022-09-02T04:37:07;147101.72;;;22.32;100.00
5877;BME280;2964;42.144;24.730;2022-09-02T04:39:34;147119.47;;;22.39;100.00
5877;BME280;2964;42.144;24.730;2022-09-02T04:42:10;147125.78;;;22.42;100.00
5877;BME280;2964;42.144;24.730;2022-09-02T04:44:42;147119.47;;;22.39;100.00
5877;BME280;2964;42.144;24.730;2022-09-02T04:47:18;147043.41;;;22.08;100.00
5877;BME280;2964;42.144;24.730;2022-09-02T04:50:12;146681.19;;;20.61;100.00
5877;BME280;2964;42.144;24.730;2022-09-02T04:52:41;147061.13;;;22.15;100.00
5877;BME280;2964;42.144;24.730;2022-09-02T04:55:49;146774.88;;;20.99;100.00
5877;BME280;2964;42.144;24.730;2022-09-02T04:58:19;147139.72;;;22.47;100.00
5877;BME280;2964;42.144;24.730;2022-09-02T05:00:56;146973.75;;;21.80;100.00
5877;BME280;2964;42.144;24.730;2022-09-02T05:03:24;147128.31;;;22.43;100.00
5877;BME280;2964;42.144;24.730;2022-09-02T05:05:59;147161.28;;;22.56;100.00
5877;BME280;2964;42.144;24.730;2022-09-02T05:08:37;147156.22;;;22.54;100.00
5877;BME280;2964;42.144;24.730;2022-09-02T05:11:06;147172.66;;;22.61;100.00
5877;BME280;2964;42.144;24.730;2022-09-02T05:13:37;147161.28;;;22.56;100.00
5877;BME280;2964;42.144;24.730;2022-09-02T05:16:05;147139.72;;;22.47;100.00
5877;BME280;2964;42.144;24.730;2022-09-02T05:18:34;147139.72;;;22.47;100.00
5877;BME280;2964;42.144;24.730;2022-09-02T05:21:03;147157.47;;;22.54;100.00
5877;BME280;2964;42.144;24.730;2022-09-02T05:23:30;147171.41;;;22.60;100.00
5877;BME280;2964;42.144;24.730;2022-09-02T05:25:57;147138.47;;;22.47;100.00
5877;BME280;2964;42.144;24.730;2022-09-02T05:28:24;147143.53;;;22.49;100.00
5877;BME280;2964;42.144;24.730;2022-09-02T05:30:51;147225.91;;;22.82;100.00
5877;BME280;2964;42.144;24.730;2022-09-02T05:33:17;147208.16;;;22.75;100.00
5877;BME280;2964;42.144;24.730;2022-09-02T05:35:46;147219.59;;;22.80;100.00
5877;BME280;2964;42.144;24.730;2022-09-02T05:38:12;147180.28;;;22.64;100.00
5877;BME280;2964;42.144;24.730;2022-09-02T05:40:41;147242.41;;;22.89;100.00
5877;BME280;2964;42.144;24.730;2022-09-02T05:43:08;147172.66;;;22.61;100.00
5877;BME280;2964;42.144;24.730;2022-09-02T05:45:36;147195.47;;;22.70;100.00
5877;BME280;2964;42.144;24.730;2022-09-02T05:48:03;147225.91;;;22.82;100.00
5877;BME280;2964;42.144;24.730;2022-09-02T05:50:51;147243.66;;;22.89;100.00
5877;BME280;2964;42.144;24.730;2022-09-02T05:53:18;147282.97;;;23.05;100.00
5877;BME280;2964;42.144;24.730;2022-09-02T05:55:45;147294.41;;;23.10;100.00
5877;BME280;2964;42.144;24.730;2022-09-02T05:58:12;147289.34;;;23.08;100.00
5877;BME280;2964;42.144;24.730;2022-09-02T06:00:38;147271.56;;;23.01;100.00
5877;BME280;2964;42.144;24.730;2022-09-02T06:03:05;147281.72;;;23.05;100.00
5877;BME280;2964;42.144;24.730;2022-09-02T06:05:32;147275.38;;;23.02;100.00
5877;BME280;2964;42.144;24.730;2022-09-02T06:08:02;147248.75;;;22.91;100.00
5877;BME280;2964;42.144;24.730;2022-09-02T06:10:28;147318.50;;;23.20;100.00
5877;BME280;2964;42.144;24.730;2022-09-02T06:12:55;147345.13;;;23.30;100.00
5877;BME280;2964;42.144;24.730;2022-09-02T06:15:22;147359.06;;;23.36;100.00
5877;BME280;2964;42.144;24.730;2022-09-02T06:17:51;147347.69;;;23.31;100.00
5877;BME280;2964;42.144;24.730;2022-09-02T06:20:17;147379.38;;;23.44;100.00
5877;BME280;2964;42.144;24.730;2022-09-02T06:22:44;147385.72;;;23.47;100.00
5877;BME280;2964;42.144;24.730;2022-09-02T06:25:12;147393.34;;;23.50;100.00
5877;BME280;2964;42.144;24.730;2022-09-02T06:27:39;147331.19;;;23.25;100.00
5877;BME280;2964;42.144;24.730;2022-09-02T06:30:07;147385.72;;;23.47;100.00
5877;BME280;2964;42.144;24.730;2022-09-02T06:32:34;147378.09;;;23.44;100.00
5877;BME280;2964;42.144;24.730;2022-09-02T06:35:00;147405.97;;;23.55;100.00
5877;BME280;2964;42.144;24.730;2022-09-02T06:37:27;147322.31;;;23.21;100.00
5877;BME280;2964;42.144;24.730;2022-09-02T06:39:54;147414.84;;;23.59;100.00
5877;BME280;2964;42.144;24.730;2022-09-02T06:42:22;147390.78;;;23.49;100.00
5877;BME280;2964;42.144;24.730;2022-09-02T06:44:49;147432.63;;;23.66;100.00
5877;BME280;2964;42.144;24.730;2022-09-02T06:47:16;147426.28;;;23.63;100.00
5877;BME280;2964;42.144;24.730;2022-09-02T06:49:43;147433.91;;;23.66;99.72
5877;BME280;2964;42.144;24.730;2022-09-02T06:52:12;147427.56;;;23.64;99.57
5877;BME280;2964;42.144;24.730;2022-09-02T06:54:38;147477.06;;;23.84;99.75
5877;BME280;2964;42.144;24.730;2022-09-02T06:57:05;147484.69;;;23.87;99.76
5877;BME280;2964;42.144;24.730;2022-09-02T06:59:33;147512.59;;;23.98;99.26
5877;BME280;2964;42.144;24.730;2022-09-02T07:02:00;147558.28;;;24.17;98.61
5877;BME280;2964;42.144;24.730;2022-09-02T07:04:28;147553.19;;;24.15;98.15
5877;BME280;2964;42.144;24.730;2022-09-02T07:07:11;147592.50;;;24.31;97.59
5877;BME280;2964;42.144;24.730;2022-09-02T07:09:38;147624.22;;;24.43;96.23
5877;BME280;2964;42.144;24.730;2022-09-02T07:12:05;147664.88;;;24.60;96.13
5877;BME280;2964;42.144;24.730;2022-09-02T07:14:37;147730.91;;;24.87;94.83
5877;BME280;2964;42.144;24.730;2022-09-02T07:17:05;147677.56;;;24.65;94.77
5877;BME280;2964;42.144;24.730;2022-09-02T07:19:32;147719.44;;;24.82;94.62
5877;BME280;2964;42.144;24.730;2022-09-02T07:21:59;147650.91;;;24.54;95.45
5877;BME280;2964;42.144;24.730;2022-09-02T07:24:26;147699.16;;;24.74;95.19
5877;BME280;2964;42.144;24.730;2022-09-02T07:26:52;147675.03;;;24.64;94.91
5877;BME280;2964;42.144;24.730;2022-09-02T07:29:19;147664.88;;;24.60;95.99
5877;BME280;2964;42.144;24.730;2022-09-02T07:31:47;147639.47;;;24.50;96.56
5877;BME280;2964;42.144;24.730;2022-09-02T07:34:15;147695.34;;;24.72;95.22
5877;BME280;2964;42.144;24.730;2022-09-02T07:36:42;147715.63;;;24.80;94.61
5877;BME280;2964;42.144;24.730;2022-09-02T07:39:11;147708.06;;;24.77;95.13
5877;BME280;2964;42.144;24.730;2022-09-02T07:41:41;147762.63;;;24.99;94.44
5877;BME280;2964;42.144;24.730;2022-09-02T07:44:09;147779.09;;;25.06;93.45
5877;BME280;2964;42.144;24.730;2022-09-02T07:46:36;147756.25;;;24.97;93.13
5877;BME280;2964;42.144;24.730;2022-09-02T07:49:07;147747.38;;;24.93;94.20
5877;BME280;2964;42.144;24.730;2022-09-02T07:51:34;147729.59;;;24.86;94.25
5877;BME280;2964;42.144;24.730;2022-09-02T07:54:02;147782.94;;;25.08;93.68
5877;BME280;2964;42.144;24.730;2022-09-02T07:56:30;147753.75;;;24.96;94.16
5877;BME280;2964;42.144;24.730;2022-09-02T07:58:56;147845.19;;;25.33;92.48
5877;BME280;2964;42.144;24.730;2022-09-02T08:01:24;147786.75;;;25.09;92.37
5877;BME280;2964;42.144;24.730;2022-09-02T08:03:51;147808.34;;;25.18;93.16
5877;BME280;2964;42.144;24.730;2022-09-02T08:06:19;147807.03;;;25.17;92.36
5877;BME280;2964;42.144;24.730;2022-09-02T08:08:48;147812.09;;;25.19;92.27
5877;BME280;2964;42.144;24.730;2022-09-02T08:11:15;147885.84;;;25.49;91.66
5877;BME280;2964;42.144;24.730;2022-09-02T08:13:42;147855.34;;;25.37;92.11
5877;BME280;2964;42.144;24.730;2022-09-02T08:16:09;147842.63;;;25.32;92.08
5877;BME280;2964;42.144;24.730;2022-09-02T08:18:36;147883.28;;;25.48;91.40
5877;BME280;2964;42.144;24.730;2022-09-02T08:21:02;147813.41;;;25.20;91.85
5877;BME280;2964;42.144;24.730;2022-09-02T08:23:30;147892.16;;;25.52;91.69
5877;BME280;2964;42.144;24.730;2022-09-02T08:25:57;147831.25;;;25.27;91.28
5877;BME280;2964;42.144;24.730;2022-09-02T08:28:24;147842.63;;;25.32;92.35
5877;BME280;2964;42.144;24.730;2022-09-02T08:30:52;147882.00;;;25.48;91.40
5877;BME280;2964;42.144;24.730;2022-09-02T08:33:19;147827.41;;;25.26;91.74
5877;BME280;2964;42.144;24.730;2022-09-02T08:35:46;147876.94;;;25.46;91.46
5877;BME280;2964;42.144;24.730;2022-09-02T08:38:13;147903.63;;;25.56;90.77
5877;BME280;2964;42.144;24.730;2022-09-02T08:40:42;147954.41;;;25.77;90.95
5877;BME280;2964;42.144;24.730;2022-09-02T08:43:23;147983.59;;;25.89;90.61
5877;BME280;2964;42.144;24.730;2022-09-02T08:45:55;148012.84;;;26.00;87.38
5877;BME280;2964;42.144;24.730;2022-09-02T08:48:32;147991.25;;;25.92;87.00
5877;BME280;2964;42.144;24.730;2022-09-02T08:51:06;147786.75;;;25.09;89.27
5877;BME280;2964;42.144;24.730;2022-09-02T08:53:38;147875.63;;;25.45;89.02
5877;BME280;2964;42.144;24.730;2022-09-02T08:56:09;147936.63;;;25.70;88.88
5877;BME280;2964;42.144;24.730;2022-09-02T08:58:39;147832.50;;;25.28;90.29
5877;BME280;2964;42.144;24.730;2022-09-02T09:01:11;147817.22;;;25.21;90.60
5877;BME280;2964;42.144;24.730;2022-09-02T09:03:51;147733.41;;;24.88;92.21
5877;BME280;2964;42.144;24.730;2022-09-02T09:06:33;147695.34;;;24.72;93.97
5877;BME280;2964;42.144;24.730;2022-09-02T09:09:08;147713.13;;;24.79;94.13
5877;BME280;2964;42.144;24.730;2022-09-02T09:11:44;147669.94;;;24.62;94.92
5877;BME280;2964;42.144;24.730;2022-09-02T09:14:23;147713.13;;;24.79;96.02
5877;BME280;2964;42.144;24.730;2022-09-02T09:16:55;147647.09;;;24.53;97.63
5877;BME280;2964;42.144;24.730;2022-09-02T09:19:32;147625.53;;;24.44;100.00
5877;BME280;2964;42.144;24.730;2022-09-02T09:22:02;147565.88;;;24.20;100.00
5877;BME280;2964;42.144;24.730;2022-09-02T09:24:34;147615.34;;;24.40;100.00
5877;BME280;2964;42.144;24.730;2022-09-02T09:27:10;147487.22;;;23.88;100.00
5877;BME280;2964;42.144;24.730;2022-09-02T09:29:38;147535.44;;;24.07;100.00
5877;BME280;2964;42.144;24.730;2022-09-02T09:32:12;147507.53;;;23.96;100.00
5877;BME280;2964;42.144;24.730;2022-09-02T09:35:01;147522.72;;;24.02;100.00
5877;BME280;2964;42.144;24.730;2022-09-02T09:37:30;147430.09;;;23.65;100.00
5877;BME280;2964;42.144;24.730;2022-09-02T09:39:57;147328.63;;;23.24;100.00
5877;BME280;2964;42.144;24.730;2022-09-02T09:42:33;147260.13;;;22.96;100.00
5877;BME280;2964;42.144;24.730;2022-09-02T09:45:17;147317.25;;;23.19;100.00
5877;BME280;2964;42.144;24.730;2022-09-02T09:48:06;147269.00;;;23.00;100.00
5877;BME280;2964;42.144;24.730;2022-09-02T09:50:36;147281.72;;;23.05;100.00
5877;BME280;2964;42.144;24.730;2022-09-02T09:53:17;147160.00;;;22.55;100.00
5877;BME280;2964;42.144;24.730;2022-09-02T09:55:53;147189.16;;;22.67;100.00
5877;BME280;2964;42.144;24.730;2022-09-02T09:58:23;147118.19;;;22.39;100.00
5877;BME280;2964;42.144;24.730;2022-09-02T10:00:53;147044.66;;;22.09;100.00
5877;BME280;2964;42.144;24.730;2022-09-02T10:03:22;146973.75;;;21.80;100.00
5877;BME280;2964;42.144;24.730;2022-09-02T10:05:53;147028.16;;;22.02;100.00
5877;BME280;2964;42.144;24.730;2022-09-02T10:08:22;147002.84;;;21.92;100.00
5877;BME280;2964;42.144;24.730;2022-09-02T10:10:57;147023.09;;;22.00;100.00
5877;BME280;2964;42.144;24.730;2022-09-02T10:13:28;147109.31;;;22.35;100.00
5877;BME280;2964;42.144;24.730;2022-09-02T10:16:11;147161.28;;;22.56;100.00
5877;BME280;2964;42.144;24.730;2022-09-02T10:18:46;147104.25;;;22.33;100.00
5877;BME280;2964;42.144;24.730;2022-09-02T10:21:27;147116.94;;;22.38;100.00
5877;BME280;2964;42.144;24.730;2022-09-02T10:24:01;147072.50;;;22.20;100.00
5877;BME280;2964;42.144;24.730;2022-09-02T10:26:35;147075.06;;;22.21;100.00
5877;BME280;2964;42.144;24.730;2022-09-02T10:29:28;147042.16;;;22.08;100.00
5877;BME280;2964;42.144;24.730;2022-09-02T10:32:13;147096.69;;;22.30;100.00
5877;BME280;2964;42.144;24.730;2022-09-02T10:34:48;147061.13;;;22.15;100.00
5877;BME280;2964;42.144;24.730;2022-09-02T10:37:21;147012.97;;;21.96;100.00
5877;BME280;2964;42.144;24.730;2022-09-02T10:40:03;147049.72;;;22.11;100.00
5877;BME280;2964;42.144;24.730;2022-09-02T10:42:39;147002.84;;;21.92;100.00
5877;BME280;2964;42.144;24.730;2022-09-02T10:45:13;147099.19;;;22.31;100.00
5877;BME280;2964;42.144;24.730;2022-09-02T10:47:44;147081.38;;;22.24;100.00
5877;BME280;2964;42.144;24.730;2022-09-02T10:50:17;146993.97;;;21.88;100.00
5877;BME280;2964;42.144;24.730;2022-09-02T10:53:10;147078.88;;;22.23;100.00
5877;BME280;2964;42.144;24.730;2022-09-02T10:55:47;147045.91;;;22.09;100.00
5877;BME280;2964;42.144;24.730;2022-09-02T10:58:20;147119.47;;;22.39;100.00
5877;BME280;2964;42.144;24.730;2022-09-02T11:00:54;147066.19;;;22.17;100.00
5877;BME280;2964;42.144;24.730;2022-09-02T11:03:28;147049.72;;;22.11;100.00
5877;BME280;2964;42.144;24.730;2022-09-02T11:06:00;147035.78;;;22.05;100.00
5877;BME280;2964;42.144;24.730;2022-09-02T11:08:35;147139.72;;;22.47;100.00
5877;BME280;2964;42.144;24.730;2022-09-02T11:11:07;147228.44;;;22.83;100.00
5877;BME280;2964;42.144;24.730;2022-09-02T11:13:39;147251.25;;;22.92;100.00
5877;BME280;2964;42.144;24.730;2022-09-02T11:16:13;147257.59;;;22.95;100.00
5877;BME280;2964;42.144;24.730;2022-09-02T11:18:46;147239.84;;;22.88;100.00
5877;BME280;2964;42.144;24.730;2022-09-02T11:21:26;147189.16;;;22.67;100.00
5877;BME280;2964;42.144;24.730;2022-09-02T11:24:00;147198.03;;;22.71;100.00
5877;BME280;2964;42.144;24.730;2022-09-02T11:26:32;147223.38;;;22.81;100.00
5877;BME280;2964;42.144;24.730;2022-09-02T11:29:08;147228.44;;;22.83;100.00
5877;BME280;2964;42.144;24.730;2022-09-02T11:31:42;147210.72;;;22.76;100.00
5877;BME280;2964;42.144;24.730;2022-09-02T11:34:18;147205.63;;;22.74;100.00
5877;BME280;2964;42.144;24.730;2022-09-02T11:36:47;147186.59;;;22.66;100.00
5877;BME280;2964;42.144;24.730;2022-09-02T11:39:17;147200.56;;;22.72;100.00
5877;BME280;2964;42.144;24.730;2022-09-02T11:42:04;147189.16;;;22.67;100.00
5877;BME280;2964;42.144;24.730;2022-09-02T11:45:00;147154.94;;;22.53;100.00
5877;BME280;2964;42.144;24.730;2022-09-02T11:47:55;147120.72;;;22.40;100.00
5877;BME280;2964;42.144;24.730;2022-09-02T11:50:39;147128.31;;;22.43;100.00
5877;BME280;2964;42.144;24.730;2022-09-02T11:53:17;147044.66;;;22.09;100.00
5877;BME280;2964;42.144;24.730;2022-09-02T11:55:49;147103.00;;;22.32;100.00
5877;BME280;2964;42.144;24.730;2022-09-02T11:58:31;147092.88;;;22.28;100.00
5877;BME280;2964;42.144;24.730;2022-09-02T12:01:15;147110.59;;;22.35;100.00
5877;BME280;2964;42.144;24.730;2022-09-02T12:03:49;147086.50;;;22.26;100.00
5877;BME280;2964;42.144;24.730;2022-09-02T12:06:19;147051.00;;;22.11;100.00
5877;BME280;2964;42.144;24.730;2022-09-02T12:09:04;147134.66;;;22.45;100.00
5877;BME280;2964;42.144;24.730;2022-09-02T12:11:49;147134.66;;;22.45;100.00
5877;BME280;2964;42.144;24.730;2022-09-02T12:21:08;147187.91;;;22.67;100.00
5877;BME280;2964;42.144;24.730;2022-09-02T12:24:06;147114.38;;;22.37;100.00
5877;BME280;2964;42.144;24.730;2022-09-02T12:27:06;147127.06;;;22.42;100.00
5877;BME280;2964;42.144;24.730;2022-09-02T12:29:33;147147.34;;;22.50;100.00
5877;BME280;2964;42.144;24.730;2022-09-02T12:32:01;147139.72;;;22.47;100.00
5877;BME280;2964;42.144;24.730;2022-09-02T12:34:52;147170.16;;;22.60;100.00
5877;BME280;2964;42.144;24.730;2022-09-02T12:37:54;147116.94;;;22.38;100.00
5877;BME280;2964;42.144;24.730;2022-09-02T12:40:34;147101.72;;;22.32;100.00
5877;BME280;2964;42.144;24.730;2022-09-02T12:43:05;147090.31;;;22.27;100.00
5877;BME280;2964;42.144;24.730;2022-09-02T12:45:43;147165.09;;;22.58;100.00
5877;BME280;2964;42.144;24.730;2022-09-02T12:48:12;147101.72;;;22.32;100.00
5877;BME280;2964;42.144;24.730;2022-09-02T12:50:52;147078.88;;;22.23;100.00
5877;BME280;2964;42.144;24.730;2022-09-02T12:53:34;146964.88;;;21.76;100.00
5877;BME280;2964;42.144;24.730;2022-09-02T12:56:04;147123.25;;;22.41;100.00
5877;BME280;2964;42.144;24.730;2022-09-02T12:58:35;147142.28;;;22.48;100.00
5877;BME280;2964;42.144;24.730;2022-09-02T13:01:12;147161.28;;;22.56;100.00
5877;BME280;2964;42.144;24.730;2022-09-02T13:04:05;147128.31;;;22.43;100.00
5877;BME280;2964;42.144;24.730;2022-09-02T13:06:46;147134.66;;;22.45;100.00
5877;BME280;2964;42.144;24.730;2022-09-02T13:09:35;147142.28;;;22.48;100.00
5877;BME280;2964;42.144;24.730;2022-09-02T13:15:22;147078.88;;;22.23;100.00
5877;BME280;2964;42.144;24.730;2022-09-02T13:21:20;147090.31;;;22.27;100.00
5877;BME280;2964;42.144;24.730;2022-09-02T13:24:19;147090.31;;;22.27;100.00
5877;BME280;2964;42.144;24.730;2022-09-02T13:27:26;147144.78;;;22.49;100.00